Los Trujillos, New Mexico
Current Conditions -  °F | °C
As of 6:35 PM on Friday 24 Oct 2014 (Local Time) from KE80 Reporting Station
Clear Clear  
Wind Chill: 69°   Ceiling: Unl
Heat Index: 69°   Visibility: 10mi
Dew Point: 32°   Wind: 5mph
Humidity: 25%   Direction: 150°SSE
Pressure: 30.23"   Gusts: NA
Location:  34.5756°N, 106.588°W
Report Text: KE80 250035Z AUTO 15004KT 10SM CLR 21/00 A3023 RMK AO2 T02070001
Loading
Personal Weather Stations






























Interactive Weather Map
Tropical Storm Tracking
New forecast layout! Learn more

10-Day Weather Forecast

Advertisements
Track Severe Weather on mobile